sensor_id;sensor_type;location;lat;lon;timestamp;P1;durP1;ratioP1;P2;durP2;ratioP2
20056;SDS011;10189;49.546;7.906;2023-06-24T00:00:08;7.35;;;6.65;;
20056;SDS011;10189;49.546;7.906;2023-06-24T00:02:37;7.00;;;6.38;;
20056;SDS011;10189;49.546;7.906;2023-06-24T00:05:04;6.85;;;6.15;;
20056;SDS011;10189;49.546;7.906;2023-06-24T00:07:31;6.07;;;5.57;;
20056;SDS011;10189;49.546;7.906;2023-06-24T00:10:01;6.30;;;5.70;;
20056;SDS011;10189;49.546;7.906;2023-06-24T00:12:29;5.97;;;5.13;;
20056;SDS011;10189;49.546;7.906;2023-06-24T00:14:55;6.75;;;5.93;;
20056;SDS011;10189;49.546;7.906;2023-06-24T00:17:21;6.82;;;5.57;;
20056;SDS011;10189;49.546;7.906;2023-06-24T00:19:46;6.45;;;5.75;;
20056;SDS011;10189;49.546;7.906;2023-06-24T00:22:12;6.30;;;5.70;;
20056;SDS011;10189;49.546;7.906;2023-06-24T00:24:38;7.03;;;5.43;;
20056;SDS011;10189;49.546;7.906;2023-06-24T00:27:05;7.68;;;5.55;;
20056;SDS011;10189;49.546;7.906;2023-06-24T00:29:31;5.93;;;5.32;;
20056;SDS011;10189;49.546;7.906;2023-06-24T00:31:57;6.30;;;5.70;;
20056;SDS011;10189;49.546;7.906;2023-06-24T00:34:22;6.43;;;5.72;;
20056;SDS011;10189;49.546;7.906;2023-06-24T00:36:50;6.03;;;5.43;;
20056;SDS011;10189;49.546;7.906;2023-06-24T00:39:16;6.90;;;5.53;;
20056;SDS011;10189;49.546;7.906;2023-06-24T00:41:42;6.43;;;5.82;;
20056;SDS011;10189;49.546;7.906;2023-06-24T00:44:08;7.85;;;5.95;;
20056;SDS011;10189;49.546;7.906;2023-06-24T00:46:34;6.18;;;5.57;;
20056;SDS011;10189;49.546;7.906;2023-06-24T00:49:01;5.80;;;5.20;;
20056;SDS011;10189;49.546;7.906;2023-06-24T00:51:28;6.10;;;5.50;;
20056;SDS011;10189;49.546;7.906;2023-06-24T00:53:59;7.38;;;5.85;;
20056;SDS011;10189;49.546;7.906;2023-06-24T00:56:27;5.97;;;5.38;;
20056;SDS011;10189;49.546;7.906;2023-06-24T00:58:58;6.00;;;5.40;;
20056;SDS011;10189;49.546;7.906;2023-06-24T01:01:28;6.18;;;5.63;;
20056;SDS011;10189;49.546;7.906;2023-06-24T01:04:00;6.40;;;5.80;;
20056;SDS011;10189;49.546;7.906;2023-06-24T01:06:28;6.20;;;5.57;;
20056;SDS011;10189;49.546;7.906;2023-06-24T01:08:56;6.25;;;5.60;;
20056;SDS011;10189;49.546;7.906;2023-06-24T01:11:28;6.10;;;5.57;;
20056;SDS011;10189;49.546;7.906;2023-06-24T01:13:55;6.40;;;5.80;;
20056;SDS011;10189;49.546;7.906;2023-06-24T01:16:25;7.30;;;5.93;;
20056;SDS011;10189;49.546;7.906;2023-06-24T01:32:18;6.47;;;5.70;;
20056;SDS011;10189;49.546;7.906;2023-06-24T01:35:02;6.55;;;5.95;;
20056;SDS011;10189;49.546;7.906;2023-06-24T01:37:48;6.93;;;6.22;;
20056;SDS011;10189;49.546;7.906;2023-06-24T01:40:25;6.35;;;5.70;;
20056;SDS011;10189;49.546;7.906;2023-06-24T01:43:08;6.93;;;6.22;;
20056;SDS011;10189;49.546;7.906;2023-06-24T01:45:44;6.10;;;5.50;;
20056;SDS011;10189;49.546;7.906;2023-06-24T01:48:15;6.70;;;6.05;;
20056;SDS011;10189;49.546;7.906;2023-06-24T01:50:59;8.80;;;7.97;;
20056;SDS011;10189;49.546;7.906;2023-06-24T01:53:37;9.93;;;7.70;;
20056;SDS011;10189;49.546;7.906;2023-06-24T01:56:13;7.75;;;7.00;;
20056;SDS011;10189;49.546;7.906;2023-06-24T01:58:43;8.07;;;6.03;;
20056;SDS011;10189;49.546;7.906;2023-06-24T02:01:12;6.25;;;5.65;;
20056;SDS011;10189;49.546;7.906;2023-06-24T02:03:40;6.43;;;5.82;;
20056;SDS011;10189;49.546;7.906;2023-06-24T02:06:07;7.18;;;6.47;;
20056;SDS011;10189;49.546;7.906;2023-06-24T02:08:35;6.88;;;5.97;;
20056;SDS011;10189;49.546;7.906;2023-06-24T02:11:05;7.55;;;6.60;;
20056;SDS011;10189;49.546;7.906;2023-06-24T02:13:33;6.63;;;5.93;;
20056;SDS011;10189;49.546;7.906;2023-06-24T02:16:06;6.90;;;5.68;;
20056;SDS011;10189;49.546;7.906;2023-06-24T02:18:34;7.05;;;6.25;;
20056;SDS011;10189;49.546;7.906;2023-06-24T02:21:03;6.82;;;6.13;;
20056;SDS011;10189;49.546;7.906;2023-06-24T02:23:30;7.10;;;6.43;;
20056;SDS011;10189;49.546;7.906;2023-06-24T02:26:03;6.97;;;6.38;;
20056;SDS011;10189;49.546;7.906;2023-06-24T02:28:32;6.30;;;5.78;;
20056;SDS011;10189;49.546;7.906;2023-06-24T02:30:59;6.57;;;5.97;;
20056;SDS011;10189;49.546;7.906;2023-06-24T02:33:26;8.48;;;7.65;;
20056;SDS011;10189;49.546;7.906;2023-06-24T02:35:52;9.38;;;6.93;;
20056;SDS011;10189;49.546;7.906;2023-06-24T02:38:18;9.05;;;8.13;;
20056;SDS011;10189;49.546;7.906;2023-06-24T02:40:46;9.43;;;8.32;;
20056;SDS011;10189;49.546;7.906;2023-06-24T02:43:13;9.60;;;7.97;;
20056;SDS011;10189;49.546;7.906;2023-06-24T02:45:39;9.15;;;8.07;;
20056;SDS011;10189;49.546;7.906;2023-06-24T02:48:06;9.98;;;8.02;;
20056;SDS011;10189;49.546;7.906;2023-06-24T02:50:35;7.82;;;7.03;;
20056;SDS011;10189;49.546;7.906;2023-06-24T02:53:02;8.40;;;7.57;;
20056;SDS011;10189;49.546;7.906;2023-06-24T02:58:02;8.18;;;7.38;;
20056;SDS011;10189;49.546;7.906;2023-06-24T03:00:51;8.30;;;7.50;;
20056;SDS011;10189;49.546;7.906;2023-06-24T03:03:28;7.78;;;7.07;;
20056;SDS011;10189;49.546;7.906;2023-06-24T03:05:56;7.50;;;6.80;;
20056;SDS011;10189;49.546;7.906;2023-06-24T03:08:23;7.80;;;7.10;;
20056;SDS011;10189;49.546;7.906;2023-06-24T03:10:54;7.57;;;6.85;;
20056;SDS011;10189;49.546;7.906;2023-06-24T03:13:22;8.02;;;7.22;;
20056;SDS011;10189;49.546;7.906;2023-06-24T03:15:55;7.15;;;6.45;;
20056;SDS011;10189;49.546;7.906;2023-06-24T03:18:21;7.85;;;7.05;;
20056;SDS011;10189;49.546;7.906;2023-06-24T03:20:48;8.60;;;7.05;;
20056;SDS011;10189;49.546;7.906;2023-06-24T03:23:18;8.82;;;7.13;;
20056;SDS011;10189;49.546;7.906;2023-06-24T03:25:44;7.78;;;6.90;;
20056;SDS011;10189;49.546;7.906;2023-06-24T03:28:10;8.38;;;6.85;;
20056;SDS011;10189;49.546;7.906;2023-06-24T03:30:42;8.68;;;7.40;;
20056;SDS011;10189;49.546;7.906;2023-06-24T03:33:11;8.32;;;7.13;;
20056;SDS011;10189;49.546;7.906;2023-06-24T03:35:42;8.77;;;7.88;;
20056;SDS011;10189;49.546;7.906;2023-06-24T03:38:12;7.50;;;6.80;;
20056;SDS011;10189;49.546;7.906;2023-06-24T03:40:38;7.63;;;6.85;;
20056;SDS011;10189;49.546;7.906;2023-06-24T03:43:04;7.80;;;6.97;;
20056;SDS011;10189;49.546;7.906;2023-06-24T03:45:30;8.30;;;7.45;;
20056;SDS011;10189;49.546;7.906;2023-06-24T03:47:56;8.90;;;8.00;;
20056;SDS011;10189;49.546;7.906;2023-06-24T03:50:22;8.57;;;7.78;;
20056;SDS011;10189;49.546;7.906;2023-06-24T03:52:48;8.65;;;7.75;;
20056;SDS011;10189;49.546;7.906;2023-06-24T03:55:14;9.27;;;8.10;;
20056;SDS011;10189;49.546;7.906;2023-06-24T03:57:41;10.30;;;9.00;;
20056;SDS011;10189;49.546;7.906;2023-06-24T04:00:07;8.30;;;7.50;;
20056;SDS011;10189;49.546;7.906;2023-06-24T04:02:46;9.23;;;8.32;;
20056;SDS011;10189;49.546;7.906;2023-06-24T04:05:12;9.48;;;8.52;;
20056;SDS011;10189;49.546;7.906;2023-06-24T04:07:38;8.90;;;8.05;;
20056;SDS011;10189;49.546;7.906;2023-06-24T04:10:04;8.35;;;7.55;;
20056;SDS011;10189;49.546;7.906;2023-06-24T04:12:35;9.95;;;7.47;;
20056;SDS011;10189;49.546;7.906;2023-06-24T04:15:02;8.07;;;7.28;;
20056;SDS011;10189;49.546;7.906;2023-06-24T04:17:29;8.25;;;7.45;;
20056;SDS011;10189;49.546;7.906;2023-06-24T04:19:58;9.68;;;7.22;;
20056;SDS011;10189;49.546;7.906;2023-06-24T04:22:24;7.80;;;7.10;;
20056;SDS011;10189;49.546;7.906;2023-06-24T04:24:55;7.97;;;7.28;;
20056;SDS011;10189;49.546;7.906;2023-06-24T04:27:22;8.30;;;7.50;;
20056;SDS011;10189;49.546;7.906;2023-06-24T04:29:48;10.35;;;9.07;;
20056;SDS011;10189;49.546;7.906;2023-06-24T04:32:14;10.07;;;8.98;;
20056;SDS011;10189;49.546;7.906;2023-06-24T04:34:40;9.57;;;8.68;;
20056;SDS011;10189;49.546;7.906;2023-06-24T04:37:06;11.20;;;10.10;;
20056;SDS011;10189;49.546;7.906;2023-06-24T04:39:32;11.60;;;10.45;;
20056;SDS011;10189;49.546;7.906;2023-06-24T04:41:58;11.18;;;10.10;;
20056;SDS011;10189;49.546;7.906;2023-06-24T04:44:24;10.75;;;9.65;;
20056;SDS011;10189;49.546;7.906;2023-06-24T04:46:49;13.75;;;9.45;;
20056;SDS011;10189;49.546;7.906;2023-06-24T04:49:17;10.43;;;9.43;;
20056;SDS011;10189;49.546;7.906;2023-06-24T04:51:43;10.70;;;9.60;;
20056;SDS011;10189;49.546;7.906;2023-06-24T04:54:10;10.75;;;9.77;;
20056;SDS011;10189;49.546;7.906;2023-06-24T04:56:37;10.40;;;9.38;;
20056;SDS011;10189;49.546;7.906;2023-06-24T04:59:04;10.90;;;8.68;;
20056;SDS011;10189;49.546;7.906;2023-06-24T05:01:30;9.55;;;8.23;;
20056;SDS011;10189;49.546;7.906;2023-06-24T05:03:56;8.55;;;7.75;;
20056;SDS011;10189;49.546;7.906;2023-06-24T05:06:22;8.68;;;7.70;;
20056;SDS011;10189;49.546;7.906;2023-06-24T05:08:48;7.32;;;6.72;;
20056;SDS011;10189;49.546;7.906;2023-06-24T05:11:14;7.38;;;6.68;;
20056;SDS011;10189;49.546;7.906;2023-06-24T05:13:39;6.88;;;6.28;;
20056;SDS011;10189;49.546;7.906;2023-06-24T05:16:06;6.85;;;6.20;;
20056;SDS011;10189;49.546;7.906;2023-06-24T05:18:32;6.72;;;6.07;;
20056;SDS011;10189;49.546;7.906;2023-06-24T05:20:57;6.95;;;6.13;;
20056;SDS011;10189;49.546;7.906;2023-06-24T05:23:23;6.90;;;6.20;;
20056;SDS011;10189;49.546;7.906;2023-06-24T05:25:50;7.00;;;6.40;;
20056;SDS011;10189;49.546;7.906;2023-06-24T05:28:16;6.32;;;5.72;;
20056;SDS011;10189;49.546;7.906;2023-06-24T05:30:44;7.78;;;6.15;;
20056;SDS011;10189;49.546;7.906;2023-06-24T05:33:11;6.63;;;6.03;;
20056;SDS011;10189;49.546;7.906;2023-06-24T05:35:37;6.30;;;5.60;;
20056;SDS011;10189;49.546;7.906;2023-06-24T05:38:05;6.57;;;5.95;;
20056;SDS011;10189;49.546;7.906;2023-06-24T05:40:31;7.18;;;6.13;;
20056;SDS011;10189;49.546;7.906;2023-06-24T05:42:58;10.75;;;9.75;;
20056;SDS011;10189;49.546;7.906;2023-06-24T05:45:24;25.10;;;20.33;;
20056;SDS011;10189;49.546;7.906;2023-06-24T05:47:50;9.05;;;7.72;;
20056;SDS011;10189;49.546;7.906;2023-06-24T05:50:15;7.85;;;7.10;;
20056;SDS011;10189;49.546;7.906;2023-06-24T05:52:41;8.15;;;7.45;;
20056;SDS011;10189;49.546;7.906;2023-06-24T05:55:07;7.88;;;7.10;;
20056;SDS011;10189;49.546;7.906;2023-06-24T05:57:34;8.07;;;7.25;;
20056;SDS011;10189;49.546;7.906;2023-06-24T06:00:00;11.25;;;10.15;;
20056;SDS011;10189;49.546;7.906;2023-06-24T06:02:25;8.45;;;7.65;;
20056;SDS011;10189;49.546;7.906;2023-06-24T06:04:51;8.50;;;7.38;;
20056;SDS011;10189;49.546;7.906;2023-06-24T06:07:18;9.60;;;7.43;;
20056;SDS011;10189;49.546;7.906;2023-06-24T06:09:43;8.40;;;7.60;;
20056;SDS011;10189;49.546;7.906;2023-06-24T06:12:09;7.70;;;7.00;;
20056;SDS011;10189;49.546;7.906;2023-06-24T06:14:35;7.25;;;6.57;;
20056;SDS011;10189;49.546;7.906;2023-06-24T06:17:01;7.40;;;6.70;;
20056;SDS011;10189;49.546;7.906;2023-06-24T06:19:27;7.60;;;6.80;;
20056;SDS011;10189;49.546;7.906;2023-06-24T06:21:53;9.65;;;8.75;;
20056;SDS011;10189;49.546;7.906;2023-06-24T06:24:19;7.68;;;6.97;;
20056;SDS011;10189;49.546;7.906;2023-06-24T06:26:45;7.63;;;6.75;;
20056;SDS011;10189;49.546;7.906;2023-06-24T06:29:11;8.82;;;8.10;;
20056;SDS011;10189;49.546;7.906;2023-06-24T06:31:37;8.57;;;7.85;;
20056;SDS011;10189;49.546;7.906;2023-06-24T06:34:03;8.27;;;6.95;;
20056;SDS011;10189;49.546;7.906;2023-06-24T06:36:29;7.60;;;6.90;;
20056;SDS011;10189;49.546;7.906;2023-06-24T06:38:55;6.90;;;6.25;;
20056;SDS011;10189;49.546;7.906;2023-06-24T06:41:20;7.07;;;6.38;;
20056;SDS011;10189;49.546;7.906;2023-06-24T06:43:52;7.90;;;6.38;;
20056;SDS011;10189;49.546;7.906;2023-06-24T06:46:19;7.50;;;6.40;;
20056;SDS011;10189;49.546;7.906;2023-06-24T06:48:45;7.95;;;7.15;;
20056;SDS011;10189;49.546;7.906;2023-06-24T06:51:12;7.07;;;6.38;;
20056;SDS011;10189;49.546;7.906;2023-06-24T06:53:38;7.32;;;6.25;;
20056;SDS011;10189;49.546;7.906;2023-06-24T06:56:04;6.68;;;6.07;;
20056;SDS011;10189;49.546;7.906;2023-06-24T06:58:30;6.85;;;6.15;;
20056;SDS011;10189;49.546;7.906;2023-06-24T07:00:56;6.70;;;6.10;;
20056;SDS011;10189;49.546;7.906;2023-06-24T07:03:26;9.52;;;6.35;;
20056;SDS011;10189;49.546;7.906;2023-06-24T07:05:53;6.95;;;6.05;;
20056;SDS011;10189;49.546;7.906;2023-06-24T07:08:19;8.98;;;6.13;;
20056;SDS011;10189;49.546;7.906;2023-06-24T07:10:45;7.03;;;6.32;;
20056;SDS011;10189;49.546;7.906;2023-06-24T07:13:10;6.90;;;6.13;;
20056;SDS011;10189;49.546;7.906;2023-06-24T07:15:36;6.85;;;6.25;;
20056;SDS011;10189;49.546;7.906;2023-06-24T07:18:02;8.05;;;6.45;;
20056;SDS011;10189;49.546;7.906;2023-06-24T07:20:28;6.55;;;5.55;;
20056;SDS011;10189;49.546;7.906;2023-06-24T07:22:54;7.18;;;5.63;;
20056;SDS011;10189;49.546;7.906;2023-06-24T07:25:19;7.05;;;5.40;;
20056;SDS011;10189;49.546;7.906;2023-06-24T07:27:45;6.28;;;5.68;;
20056;SDS011;10189;49.546;7.906;2023-06-24T07:30:11;6.30;;;5.57;;
20056;SDS011;10189;49.546;7.906;2023-06-24T07:32:37;6.22;;;5.60;;
20056;SDS011;10189;49.546;7.906;2023-06-24T07:35:03;6.28;;;5.63;;
20056;SDS011;10189;49.546;7.906;2023-06-24T07:37:29;6.68;;;5.68;;
20056;SDS011;10189;49.546;7.906;2023-06-24T07:39:55;6.70;;;6.10;;
20056;SDS011;10189;49.546;7.906;2023-06-24T07:42:21;6.47;;;5.88;;
20056;SDS011;10189;49.546;7.906;2023-06-24T07:44:47;6.47;;;5.88;;
20056;SDS011;10189;49.546;7.906;2023-06-24T07:47:14;5.80;;;5.30;;
20056;SDS011;10189;49.546;7.906;2023-06-24T07:49:42;8.93;;;5.40;;
20056;SDS011;10189;49.546;7.906;2023-06-24T07:52:08;6.10;;;5.47;;
20056;SDS011;10189;49.546;7.906;2023-06-24T07:54:34;6.88;;;5.78;;
20056;SDS011;10189;49.546;7.906;2023-06-24T07:57:00;6.00;;;5.50;;
20056;SDS011;10189;49.546;7.906;2023-06-24T07:59:27;7.65;;;5.93;;
20056;SDS011;10189;49.546;7.906;2023-06-24T08:01:53;6.78;;;5.53;;
20056;SDS011;10189;49.546;7.906;2023-06-24T08:04:19;7.38;;;5.97;;
20056;SDS011;10189;49.546;7.906;2023-06-24T08:06:44;5.82;;;5.20;;
20056;SDS011;10189;49.546;7.906;2023-06-24T08:09:10;8.98;;;5.82;;
20056;SDS011;10189;49.546;7.906;2023-06-24T08:11:36;7.13;;;6.35;;
20056;SDS011;10189;49.546;7.906;2023-06-24T08:14:02;7.07;;;6.47;;
20056;SDS011;10189;49.546;7.906;2023-06-24T08:16:29;7.97;;;6.70;;
20056;SDS011;10189;49.546;7.906;2023-06-24T08:18:55;7.18;;;6.45;;
20056;SDS011;10189;49.546;7.906;2023-06-24T08:21:21;7.05;;;6.45;;
20056;SDS011;10189;49.546;7.906;2023-06-24T08:23:47;6.80;;;6.20;;
20056;SDS011;10189;49.546;7.906;2023-06-24T08:26:15;8.18;;;6.00;;
20056;SDS011;10189;49.546;7.906;2023-06-24T08:28:41;7.25;;;6.55;;
20056;SDS011;10189;49.546;7.906;2023-06-24T08:31:07;7.43;;;6.30;;
20056;SDS011;10189;49.546;7.906;2023-06-24T08:33:33;7.20;;;6.55;;
20056;SDS011;10189;49.546;7.906;2023-06-24T08:35:59;6.82;;;6.22;;
20056;SDS011;10189;49.546;7.906;2023-06-24T08:38:25;8.73;;;6.72;;
20056;SDS011;10189;49.546;7.906;2023-06-24T08:40:50;7.47;;;6.78;;
20056;SDS011;10189;49.546;7.906;2023-06-24T08:43:17;7.70;;;6.93;;
20056;SDS011;10189;49.546;7.906;2023-06-24T08:45:43;8.95;;;6.57;;
20056;SDS011;10189;49.546;7.906;2023-06-24T08:48:10;7.07;;;6.38;;
20056;SDS011;10189;49.546;7.906;2023-06-24T08:50:40;7.18;;;6.45;;
20056;SDS011;10189;49.546;7.906;2023-06-24T08:53:11;6.95;;;6.22;;
20056;SDS011;10189;49.546;7.906;2023-06-24T08:55:40;7.07;;;6.30;;
20056;SDS011;10189;49.546;7.906;2023-06-24T09:00:36;7.50;;;6.80;;
20056;SDS011;10189;49.546;7.906;2023-06-24T09:03:02;7.20;;;6.50;;
20056;SDS011;10189;49.546;7.906;2023-06-24T09:05:28;6.75;;;6.07;;
20056;SDS011;10189;49.546;7.906;2023-06-24T09:07:54;7.22;;;6.60;;
20056;SDS011;10189;49.546;7.906;2023-06-24T09:10:35;7.30;;;6.45;;
20056;SDS011;10189;49.546;7.906;2023-06-24T09:13:03;7.88;;;6.70;;
20056;SDS011;10189;49.546;7.906;2023-06-24T09:15:34;7.25;;;6.07;;
20056;SDS011;10189;49.546;7.906;2023-06-24T09:18:03;8.48;;;5.80;;
20056;SDS011;10189;49.546;7.906;2023-06-24T09:20:30;6.50;;;5.95;;
20056;SDS011;10189;49.546;7.906;2023-06-24T09:22:59;6.90;;;6.18;;
20056;SDS011;10189;49.546;7.906;2023-06-24T09:27:58;5.82;;;5.32;;
20056;SDS011;10189;49.546;7.906;2023-06-24T09:30:28;5.95;;;5.40;;
20056;SDS011;10189;49.546;7.906;2023-06-24T09:32:55;6.38;;;5.78;;
20056;SDS011;10189;49.546;7.906;2023-06-24T09:35:22;8.05;;;5.22;;
20056;SDS011;10189;49.546;7.906;2023-06-24T09:37:53;5.40;;;4.90;;
20056;SDS011;10189;49.546;7.906;2023-06-24T09:40:24;6.53;;;4.80;;
20056;SDS011;10189;49.546;7.906;2023-06-24T09:42:51;5.97;;;5.38;;
20056;SDS011;10189;49.546;7.906;2023-06-24T09:45:21;6.38;;;5.05;;
20056;SDS011;10189;49.546;7.906;2023-06-24T09:47:50;5.82;;;5.03;;
20056;SDS011;10189;49.546;7.906;2023-06-24T09:50:16;5.75;;;4.95;;
20056;SDS011;10189;49.546;7.906;2023-06-24T09:52:43;6.80;;;6.15;;
20056;SDS011;10189;49.546;7.906;2023-06-24T09:55:15;7.00;;;5.35;;
20056;SDS011;10189;49.546;7.906;2023-06-24T09:57:47;7.30;;;5.70;;
20056;SDS011;10189;49.546;7.906;2023-06-24T10:00:17;5.50;;;4.95;;
20056;SDS011;10189;49.546;7.906;2023-06-24T10:02:46;8.52;;;5.80;;
20056;SDS011;10189;49.546;7.906;2023-06-24T10:05:13;7.68;;;5.78;;
20056;SDS011;10189;49.546;7.906;2023-06-24T10:07:40;6.18;;;5.57;;
20056;SDS011;10189;49.546;7.906;2023-06-24T10:10:07;6.18;;;5.65;;
20056;SDS011;10189;49.546;7.906;2023-06-24T10:12:37;6.30;;;5.70;;
20056;SDS011;10189;49.546;7.906;2023-06-24T10:15:03;13.05;;;6.30;;
20056;SDS011;10189;49.546;7.906;2023-06-24T10:17:31;5.88;;;5.38;;
20056;SDS011;10189;49.546;7.906;2023-06-24T10:19:57;6.32;;;5.72;;
20056;SDS011;10189;49.546;7.906;2023-06-24T10:22:23;5.72;;;5.15;;
20056;SDS011;10189;49.546;7.906;2023-06-24T10:24:51;5.43;;;4.93;;
20056;SDS011;10189;49.546;7.906;2023-06-24T10:27:18;6.10;;;5.50;;
20056;SDS011;10189;49.546;7.906;2023-06-24T10:29:48;5.90;;;5.40;;
20056;SDS011;10189;49.546;7.906;2023-06-24T10:32:19;5.68;;;5.18;;
20056;SDS011;10189;49.546;7.906;2023-06-24T10:34:47;6.70;;;5.10;;
20056;SDS011;10189;49.546;7.906;2023-06-24T10:37:23;5.57;;;5.07;;
20056;SDS011;10189;49.546;7.906;2023-06-24T10:47:33;5.90;;;5.30;;
20056;SDS011;10189;49.546;7.906;2023-06-24T10:50:12;6.03;;;5.45;;
20056;SDS011;10189;49.546;7.906;2023-06-24T10:52:45;6.22;;;5.57;;
20056;SDS011;10189;49.546;7.906;2023-06-24T10:55:17;6.50;;;5.90;;
20056;SDS011;10189;49.546;7.906;2023-06-24T10:57:44;6.82;;;6.13;;
20056;SDS011;10189;49.546;7.906;2023-06-24T11:00:11;6.30;;;5.70;;
20056;SDS011;10189;49.546;7.906;2023-06-24T11:02:39;6.05;;;5.45;;
20056;SDS011;10189;49.546;7.906;2023-06-24T11:05:05;6.20;;;5.60;;
20056;SDS011;10189;49.546;7.906;2023-06-24T11:07:32;6.20;;;5.68;;
20056;SDS011;10189;49.546;7.906;2023-06-24T11:12:34;7.22;;;5.93;;
20056;SDS011;10189;49.546;7.906;2023-06-24T11:15:06;6.05;;;5.35;;
20056;SDS011;10189;49.546;7.906;2023-06-24T11:17:37;6.50;;;5.43;;
20056;SDS011;10189;49.546;7.906;2023-06-24T11:20:08;6.43;;;5.82;;
20056;SDS011;10189;49.546;7.906;2023-06-24T11:22:36;5.13;;;4.53;;
20056;SDS011;10189;49.546;7.906;2023-06-24T11:25:05;6.13;;;5.50;;
20056;SDS011;10189;49.546;7.906;2023-06-24T11:27:31;6.07;;;5.47;;
20056;SDS011;10189;49.546;7.906;2023-06-24T11:29:58;6.25;;;5.18;;
20056;SDS011;10189;49.546;7.906;2023-06-24T11:32:39;7.70;;;5.55;;
20056;SDS011;10189;49.546;7.906;2023-06-24T11:35:13;5.65;;;5.15;;
20056;SDS011;10189;49.546;7.906;2023-06-24T11:37:43;6.82;;;4.97;;
20056;SDS011;10189;49.546;7.906;2023-06-24T11:40:11;6.13;;;5.47;;
20056;SDS011;10189;49.546;7.906;2023-06-24T11:42:41;10.10;;;5.13;;
20056;SDS011;10189;49.546;7.906;2023-06-24T11:45:10;6.13;;;5.53;;
20056;SDS011;10189;49.546;7.906;2023-06-24T11:47:38;5.88;;;5.25;;
20056;SDS011;10189;49.546;7.906;2023-06-24T11:50:06;5.38;;;4.88;;
20056;SDS011;10189;49.546;7.906;2023-06-24T11:52:43;6.53;;;5.28;;
20056;SDS011;10189;49.546;7.906;2023-06-24T11:55:17;5.78;;;4.85;;
20056;SDS011;10189;49.546;7.906;2023-06-24T11:57:50;4.90;;;4.43;;
20056;SDS011;10189;49.546;7.906;2023-06-24T12:00:19;5.65;;;4.95;;
20056;SDS011;10189;49.546;7.906;2023-06-24T12:02:48;5.45;;;4.95;;
20056;SDS011;10189;49.546;7.906;2023-06-24T12:05:20;5.65;;;5.05;;
20056;SDS011;10189;49.546;7.906;2023-06-24T12:07:54;6.30;;;5.03;;
20056;SDS011;10189;49.546;7.906;2023-06-24T12:10:25;5.55;;;5.05;;
20056;SDS011;10189;49.546;7.906;2023-06-24T12:12:54;6.55;;;4.60;;
20056;SDS011;10189;49.546;7.906;2023-06-24T12:15:22;5.75;;;5.25;;
20056;SDS011;10189;49.546;7.906;2023-06-24T12:17:47;8.77;;;7.63;;
20056;SDS011;10189;49.546;7.906;2023-06-24T12:20:14;6.10;;;5.60;;
20056;SDS011;10189;49.546;7.906;2023-06-24T12:22:41;6.03;;;5.53;;
20056;SDS011;10189;49.546;7.906;2023-06-24T12:25:07;6.50;;;5.80;;
20056;SDS011;10189;49.546;7.906;2023-06-24T12:27:34;6.47;;;5.55;;
20056;SDS011;10189;49.546;7.906;2023-06-24T12:30:01;5.50;;;5.00;;
20056;SDS011;10189;49.546;7.906;2023-06-24T12:32:28;7.13;;;5.00;;
20056;SDS011;10189;49.546;7.906;2023-06-24T12:34:53;5.07;;;4.43;;
20056;SDS011;10189;49.546;7.906;2023-06-24T12:37:19;5.22;;;4.72;;
20056;SDS011;10189;49.546;7.906;2023-06-24T12:39:45;5.82;;;5.20;;
20056;SDS011;10189;49.546;7.906;2023-06-24T12:42:11;5.55;;;5.05;;
20056;SDS011;10189;49.546;7.906;2023-06-24T12:44:37;5.15;;;4.65;;
20056;SDS011;10189;49.546;7.906;2023-06-24T12:47:03;6.32;;;5.00;;
20056;SDS011;10189;49.546;7.906;2023-06-24T12:49:30;5.28;;;4.78;;
20056;SDS011;10189;49.546;7.906;2023-06-24T12:51:56;6.20;;;5.00;;
20056;SDS011;10189;49.546;7.906;2023-06-24T12:54:22;5.15;;;4.55;;
20056;SDS011;10189;49.546;7.906;2023-06-24T12:56:47;6.25;;;5.22;;
20056;SDS011;10189;49.546;7.906;2023-06-24T12:59:13;5.07;;;4.68;;
20056;SDS011;10189;49.546;7.906;2023-06-24T13:01:39;4.72;;;4.22;;
20056;SDS011;10189;49.546;7.906;2023-06-24T13:04:10;6.05;;;4.13;;
20056;SDS011;10189;49.546;7.906;2023-06-24T13:06:39;6.88;;;4.82;;
20056;SDS011;10189;49.546;7.906;2023-06-24T13:09:06;5.38;;;4.85;;
20056;SDS011;10189;49.546;7.906;2023-06-24T13:11:32;4.90;;;4.45;;
20056;SDS011;10189;49.546;7.906;2023-06-24T13:13:57;5.28;;;4.78;;
20056;SDS011;10189;49.546;7.906;2023-06-24T13:16:23;6.60;;;4.82;;
20056;SDS011;10189;49.546;7.906;2023-06-24T13:18:49;5.22;;;4.72;;
20056;SDS011;10189;49.546;7.906;2023-06-24T13:21:15;4.95;;;4.55;;
20056;SDS011;10189;49.546;7.906;2023-06-24T13:23:41;5.22;;;4.72;;
20056;SDS011;10189;49.546;7.906;2023-06-24T13:26:07;5.85;;;4.65;;
20056;SDS011;10189;49.546;7.906;2023-06-24T13:28:33;5.88;;;4.68;;
20056;SDS011;10189;49.546;7.906;2023-06-24T13:30:59;5.00;;;4.60;;
20056;SDS011;10189;49.546;7.906;2023-06-24T13:33:24;5.15;;;4.65;;
20056;SDS011;10189;49.546;7.906;2023-06-24T13:35:51;6.88;;;5.20;;
20056;SDS011;10189;49.546;7.906;2023-06-24T13:38:17;6.95;;;4.95;;
20056;SDS011;10189;49.546;7.906;2023-06-24T13:40:43;5.30;;;4.85;;
20056;SDS011;10189;49.546;7.906;2023-06-24T13:43:09;5.10;;;4.60;;
20056;SDS011;10189;49.546;7.906;2023-06-24T13:45:35;5.45;;;4.90;;
20056;SDS011;10189;49.546;7.906;2023-06-24T13:48:01;6.22;;;5.13;;
20056;SDS011;10189;49.546;7.906;2023-06-24T13:50:27;5.57;;;4.70;;
20056;SDS011;10189;49.546;7.906;2023-06-24T13:52:54;5.45;;;4.95;;
20056;SDS011;10189;49.546;7.906;2023-06-24T13:55:20;4.82;;;4.32;;
20056;SDS011;10189;49.546;7.906;2023-06-24T13:57:46;5.32;;;4.82;;
20056;SDS011;10189;49.546;7.906;2023-06-24T14:00:13;6.85;;;4.65;;
20056;SDS011;10189;49.546;7.906;2023-06-24T14:02:40;5.72;;;4.82;;
20056;SDS011;10189;49.546;7.906;2023-06-24T14:05:06;5.15;;;4.68;;
20056;SDS011;10189;49.546;7.906;2023-06-24T14:07:33;5.85;;;5.05;;
20056;SDS011;10189;49.546;7.906;2023-06-24T14:09:59;8.23;;;4.65;;
20056;SDS011;10189;49.546;7.906;2023-06-24T14:12:25;5.25;;;4.75;;
20056;SDS011;10189;49.546;7.906;2023-06-24T14:14:51;5.13;;;4.70;;
20056;SDS011;10189;49.546;7.906;2023-06-24T14:17:17;4.75;;;4.30;;
20056;SDS011;10189;49.546;7.906;2023-06-24T14:19:43;5.38;;;4.75;;
20056;SDS011;10189;49.546;7.906;2023-06-24T14:22:09;6.18;;;4.93;;
20056;SDS011;10189;49.546;7.906;2023-06-24T14:24:35;6.15;;;4.35;;
20056;SDS011;10189;49.546;7.906;2023-06-24T14:27:03;6.50;;;4.63;;
20056;SDS011;10189;49.546;7.906;2023-06-24T14:29:31;6.63;;;4.70;;
20056;SDS011;10189;49.546;7.906;2023-06-24T14:31:57;5.57;;;4.95;;
20056;SDS011;10189;49.546;7.906;2023-06-24T14:34:23;5.13;;;4.68;;
20056;SDS011;10189;49.546;7.906;2023-06-24T14:36:48;5.28;;;4.78;;
20056;SDS011;10189;49.546;7.906;2023-06-24T14:39:15;5.50;;;4.68;;
20056;SDS011;10189;49.546;7.906;2023-06-24T14:41:42;7.53;;;5.20;;
20056;SDS011;10189;49.546;7.906;2023-06-24T14:44:08;5.28;;;4.78;;
20056;SDS011;10189;49.546;7.906;2023-06-24T14:46:34;5.60;;;4.90;;
20056;SDS011;10189;49.546;7.906;2023-06-24T14:49:00;6.72;;;4.70;;
20056;SDS011;10189;49.546;7.906;2023-06-24T14:51:26;5.53;;;4.80;;
20056;SDS011;10189;49.546;7.906;2023-06-24T14:53:52;4.72;;;4.38;;
20056;SDS011;10189;49.546;7.906;2023-06-24T14:56:18;5.53;;;5.03;;
20056;SDS011;10189;49.546;7.906;2023-06-24T14:58:44;5.55;;;5.05;;
20056;SDS011;10189;49.546;7.906;2023-06-24T15:01:10;5.60;;;5.05;;
20056;SDS011;10189;49.546;7.906;2023-06-24T15:03:36;6.60;;;4.57;;
20056;SDS011;10189;49.546;7.906;2023-06-24T15:06:02;5.35;;;4.85;;
20056;SDS011;10189;49.546;7.906;2023-06-24T15:08:28;5.20;;;4.70;;
20056;SDS011;10189;49.546;7.906;2023-06-24T15:10:54;5.00;;;4.50;;
20056;SDS011;10189;49.546;7.906;2023-06-24T15:13:19;5.43;;;4.95;;
20056;SDS011;10189;49.546;7.906;2023-06-24T15:15:45;5.03;;;4.53;;
20056;SDS011;10189;49.546;7.906;2023-06-24T15:18:12;5.20;;;4.72;;
20056;SDS011;10189;49.546;7.906;2023-06-24T15:20:39;5.13;;;4.72;;